createdAt,value
2018-03-06T00:00:20.961Z,4.24
2018-03-06T00:01:20.371Z,4.19
2018-03-06T00:02:20.100Z,4.12
2018-03-06T00:03:20.337Z,4.2
2018-03-06T00:04:21.799Z,4.05
2018-03-06T00:05:20.459Z,4.08
2018-03-06T00:06:20.049Z,4.06
2018-03-06T00:07:20.336Z,4.08
2018-03-06T00:08:21.845Z,4.12
2018-03-06T00:09:20.046Z,4.04
2018-03-06T00:10:20.273Z,4.02
2018-03-06T00:11:21.589Z,4.04
2018-03-06T00:12:20.278Z,3.99
2018-03-06T00:13:20.276Z,3.96
2018-03-06T00:14:19.987Z,4.04
2018-03-06T00:15:21.264Z,3.95
2018-03-06T00:16:19.984Z,3.95
2018-03-06T00:17:20.246Z,3.99
2018-03-06T00:18:19.678Z,3.95
2018-03-06T00:19:20.408Z,4.01
2018-03-06T00:20:20.239Z,3.95
2018-03-06T00:21:20.024Z,3.84
2018-03-06T00:22:19.955Z,3.94
2018-03-06T00:23:20.225Z,3.83
2018-03-06T00:24:20.170Z,3.87
2018-03-06T00:25:20.297Z,3.84
2018-03-06T00:26:20.749Z,3.99
2018-03-06T00:27:20.131Z,3.84
2018-03-06T00:28:19.871Z,3.91
2018-03-06T00:29:19.584Z,4.01
2018-03-06T00:30:21.510Z,3.98
2018-03-06T00:31:19.842Z,3.84
2018-03-06T00:32:19.814Z,3.87
2018-03-06T00:33:19.550Z,3.87
2018-03-06T00:34:20.410Z,3.78
2018-03-06T00:35:20.209Z,3.84
2018-03-06T00:36:19.800Z,3.76
2018-03-06T00:37:19.784Z,3.83
2018-03-06T00:38:21.340Z,3.86
2018-03-06T00:39:19.494Z,3.76
2018-03-06T00:40:20.447Z,3.8
2018-03-06T00:41:23.496Z,3.68
2018-03-06T00:42:19.729Z,3.68
2018-03-06T00:43:19.725Z,3.73
2018-03-06T00:44:20.751Z,3.69
2018-03-06T00:45:20.018Z,3.73
2018-03-06T00:46:19.970Z,3.69
2018-03-06T00:47:20.539Z,3.69
2018-03-06T00:48:19.962Z,3.69
2018-03-06T00:49:19.925Z,3.69
2018-03-06T00:50:20.423Z,3.66
2018-03-06T00:51:20.583Z,3.66
2018-03-06T00:52:19.644Z,3.66
2018-03-06T00:53:19.898Z,3.68
2018-03-06T00:54:19.366Z,3.74
2018-03-06T00:55:19.796Z,3.69
2018-03-06T00:56:19.338Z,3.66
2018-03-06T00:57:20.143Z,3.59
2018-03-06T00:58:19.330Z,3.65
2018-03-06T00:59:19.591Z,3.6
2018-03-06T01:00:19.518Z,3.58
2018-03-06T01:01:21.341Z,3.48
2018-03-06T01:02:19.558Z,3.55
2018-03-06T01:03:19.543Z,3.47
2018-03-06T01:04:19.829Z,3.58
2018-03-06T01:05:20.593Z,3.37
2018-03-06T01:06:19.810Z,3.55
2018-03-06T01:07:19.515Z,3.45
2018-03-06T01:08:20.658Z,3.44
2018-03-06T01:09:19.488Z,3.41
2018-03-06T01:10:19.448Z,3.45
2018-03-06T01:11:19.738Z,3.4
2018-03-06T01:12:20.339Z,3.32
2018-03-06T01:13:19.742Z,3.44
2018-03-06T01:14:19.724Z,3.4
2018-03-06T01:15:19.403Z,3.37
2018-03-06T01:16:19.441Z,3.44
2018-03-06T01:17:19.410Z,3.47
2018-03-06T01:18:19.433Z,3.45
2018-03-06T01:19:21.385Z,3.58
2018-03-06T01:20:19.636Z,3.42
2018-03-06T01:21:19.384Z,3.59
2018-03-06T01:22:19.385Z,3.5
2018-03-06T01:23:20.164Z,3.48
2018-03-06T01:24:19.623Z,3.42
2018-03-06T01:25:19.510Z,3.55
2018-03-06T01:26:20.608Z,3.44
2018-03-06T01:27:20.124Z,3.44
2018-03-06T01:28:19.591Z,3.45
2018-03-06T01:29:19.675Z,3.47
2018-03-06T01:30:20.828Z,3.5
2018-03-06T01:31:19.370Z,3.4
2018-03-06T01:32:19.656Z,3.37
2018-03-06T01:33:21.032Z,3.36
2018-03-06T01:34:19.528Z,3.25
2018-03-06T01:35:19.993Z,3.23
2018-03-06T01:36:20.101Z,3.19
2018-03-06T01:37:19.235Z,3.23
2018-03-06T01:38:19.520Z,3.25
2018-03-06T01:39:20.066Z,3.22
2018-03-06T01:40:20.633Z,3.18
2018-03-06T01:41:19.465Z,3.14
2018-03-06T01:42:19.204Z,3.13
2018-03-06T01:43:20.093Z,3.14
2018-03-06T01:44:19.465Z,3.1
2018-03-06T01:45:19.425Z,3.11
2018-03-06T01:46:20.867Z,3.05
2018-03-06T01:47:19.149Z,3.08
2018-03-06T01:48:18.861Z,3.07
2018-03-06T01:49:21.069Z,2.92
2018-03-06T01:50:19.110Z,3.01
2018-03-06T01:51:19.125Z,3
2018-03-06T01:52:19.402Z,2.93
2018-03-06T01:53:19.571Z,2.97
2018-03-06T01:54:19.333Z,2.92
2018-03-06T01:55:19.656Z,2.95
2018-03-06T01:56:20.992Z,2.82
2018-03-06T01:57:19.059Z,2.9
2018-03-06T01:58:19.570Z,2.9
2018-03-06T01:59:19.305Z,2.9
2018-03-06T02:00:21.035Z,2.8
2018-03-06T02:01:19.063Z,2.79
2018-03-06T02:02:19.160Z,2.8
2018-03-06T02:03:20.001Z,2.82
2018-03-06T02:04:18.982Z,2.82
2018-03-06T02:05:19.418Z,2.71
2018-03-06T02:06:18.961Z,2.68
2018-03-06T02:07:18.947Z,2.77
2018-03-06T02:08:19.269Z,2.77
2018-03-06T02:09:18.674Z,2.9
2018-03-06T02:10:21.315Z,2.93
2018-03-06T02:11:19.181Z,2.89
2018-03-06T02:12:19.182Z,3.01
2018-03-06T02:13:19.192Z,2.95
2018-03-06T02:14:20.864Z,2.97
2018-03-06T02:15:19.478Z,2.97
2018-03-06T02:16:19.146Z,2.93
2018-03-06T02:17:18.874Z,2.92
2018-03-06T02:18:19.444Z,3.03
2018-03-06T02:19:18.840Z,2.86
2018-03-06T02:20:19.378Z,2.89
2018-03-06T02:21:19.635Z,2.9
2018-03-06T02:22:19.101Z,2.92
2018-03-06T02:23:19.077Z,2.93
2018-03-06T02:24:18.787Z,2.87
2018-03-06T02:25:21.075Z,2.9
2018-03-06T02:26:19.046Z,2.9
2018-03-06T02:27:19.035Z,2.87
2018-03-06T02:28:19.902Z,2.82
2018-03-06T02:29:19.590Z,2.89
2018-03-06T02:30:19.533Z,2.77
2018-03-06T02:31:18.733Z,2.86
2018-03-06T02:32:20.491Z,2.89
2018-03-06T02:33:18.726Z,2.8
2018-03-06T02:34:18.972Z,2.74
2018-03-06T02:35:19.551Z,2.72
2018-03-06T02:36:20.739Z,2.71
2018-03-06T02:37:18.943Z,2.69
2018-03-06T02:38:18.654Z,2.72
2018-03-06T02:39:18.937Z,2.71
2018-03-06T02:40:21.268Z,2.68
2018-03-06T02:41:18.638Z,2.68
2018-03-06T02:42:18.626Z,2.72
2018-03-06T02:43:23.824Z,2.61
2018-03-06T02:44:18.865Z,2.54
2018-03-06T02:45:19.036Z,2.64
2018-03-06T02:46:19.668Z,2.57
2018-03-06T02:47:18.943Z,2.54
2018-03-06T02:48:18.854Z,2.53
2018-03-06T02:49:18.809Z,2.49
2018-03-06T02:50:19.886Z,2.57
2018-03-06T02:51:18.803Z,2.51
2018-03-06T02:52:18.542Z,2.56
2018-03-06T02:53:18.771Z,2.5
2018-03-06T02:54:19.121Z,2.5
2018-03-06T02:55:19.168Z,2.5
2018-03-06T02:56:18.542Z,2.54
2018-03-06T02:57:19.276Z,2.44
2018-03-06T02:58:18.767Z,2.44
2018-03-06T02:59:19.580Z,2.39
2018-03-06T03:00:19.309Z,2.36
2018-03-06T03:01:20.197Z,2.44
2018-03-06T03:02:18.715Z,2.39
2018-03-06T03:03:18.678Z,2.29
2018-03-06T03:04:18.672Z,2.42
2018-03-06T03:05:19.881Z,2.43
2018-03-06T03:06:18.654Z,2.31
2018-03-06T03:07:18.665Z,2.28
2018-03-06T03:08:20.285Z,2.42
2018-03-06T03:09:18.358Z,2.26
2018-03-06T03:10:19.348Z,2.29
2018-03-06T03:11:18.334Z,2.32
2018-03-06T03:12:20.117Z,2.28
2018-03-06T03:13:18.607Z,2.29
2018-03-06T03:14:21.900Z,2.22
2018-03-06T03:15:19.277Z,2.1
2018-03-06T03:16:20.074Z,2.25
2018-03-06T03:17:18.275Z,2.22
2018-03-06T03:18:18.276Z,2.2
2018-03-06T03:19:18.259Z,2.11
2018-03-06T03:20:20.634Z,2.17
2018-03-06T03:21:18.237Z,2.22
2018-03-06T03:22:18.513Z,2.25
2018-03-06T03:23:19.049Z,2.22
2018-03-06T03:24:18.489Z,2.13
2018-03-06T03:25:18.818Z,2.25
2018-03-06T03:26:17.911Z,2.18
2018-03-06T03:27:18.195Z,2.1
2018-03-06T03:28:18.469Z,2.07
2018-03-06T03:29:19.987Z,2.08
2018-03-06T03:30:18.626Z,2.13
2018-03-06T03:31:18.422Z,2.02
2018-03-06T03:32:17.852Z,2.1
2018-03-06T03:33:18.386Z,2.1
2018-03-06T03:34:18.419Z,2.17
2018-03-06T03:35:18.745Z,2.13
2018-03-06T03:36:18.972Z,1.97
2018-03-06T03:37:18.371Z,2.08
2018-03-06T03:38:18.068Z,2.14
2018-03-06T03:39:19.626Z,2.04
2018-03-06T03:40:18.521Z,2.1
2018-03-06T03:41:18.331Z,2
2018-03-06T03:42:19.129Z,2.07
2018-03-06T03:43:18.287Z,2.08
2018-03-06T03:44:17.734Z,2.06
2018-03-06T03:45:21.237Z,2.06
2018-03-06T03:46:18.267Z,2.02
2018-03-06T03:47:18.261Z,2.07
2018-03-06T03:48:19.812Z,2
2018-03-06T03:49:17.968Z,2.04
2018-03-06T03:50:19.047Z,2.07
2018-03-06T03:51:18.393Z,2.06
2018-03-06T03:52:18.051Z,2.02
2018-03-06T03:53:17.941Z,2.07
2018-03-06T03:54:18.184Z,2
2018-03-06T03:55:18.996Z,2
2018-03-06T03:56:18.173Z,1.97
2018-03-06T03:57:18.142Z,1.94
2018-03-06T03:58:18.794Z,1.99
2018-03-06T03:59:18.152Z,2.04
2018-03-06T04:00:18.551Z,1.91
2018-03-06T04:01:17.558Z,1.97
2018-03-06T04:02:19.463Z,1.95
2018-03-06T04:03:17.800Z,1.89
2018-03-06T04:04:18.275Z,1.8
2018-03-06T04:05:19.660Z,1.88
2018-03-06T04:06:17.810Z,1.8
2018-03-06T04:07:19.668Z,1.84
2018-03-06T04:08:18.028Z,1.71
2018-03-06T04:09:17.476Z,1.85
2018-03-06T04:10:18.268Z,1.74
2018-03-06T04:11:18.004Z,1.7
2018-03-06T04:12:18.019Z,1.74
2018-03-06T04:13:17.442Z,1.77
2018-03-06T04:14:19.498Z,1.81
2018-03-06T04:15:18.970Z,1.76
2018-03-06T04:16:17.678Z,1.78
2018-03-06T04:17:18.640Z,1.73
2018-03-06T04:18:17.931Z,1.81
2018-03-06T04:19:17.989Z,1.74
2018-03-06T04:20:18.200Z,1.76
2018-03-06T04:21:17.915Z,1.81
2018-03-06T04:22:17.604Z,1.73
2018-03-06T04:23:17.858Z,1.76
2018-03-06T04:24:18.343Z,1.77
2018-03-06T04:25:18.581Z,1.76
2018-03-06T04:26:17.857Z,1.77
2018-03-06T04:27:19.468Z,1.76
2018-03-06T04:28:17.557Z,1.77
2018-03-06T04:29:17.822Z,1.76
2018-03-06T04:30:18.896Z,1.76
2018-03-06T04:31:19.221Z,1.74
2018-03-06T04:32:17.504Z,1.74
2018-03-06T04:33:17.774Z,1.68
2018-03-06T04:34:19.550Z,1.62
2018-03-06T04:35:18.419Z,1.59
2018-03-06T04:36:17.472Z,1.7
2018-03-06T04:37:19.189Z,1.68
2018-03-06T04:38:17.737Z,1.66
2018-03-06T04:39:17.475Z,1.68
2018-03-06T04:40:18.353Z,1.67
2018-03-06T04:41:19.343Z,1.56
2018-03-06T04:42:17.702Z,1.59
2018-03-06T04:43:17.390Z,1.6
2018-03-06T04:44:18.098Z,1.6
2018-03-06T04:45:19.513Z,1.56
2018-03-06T04:46:17.679Z,1.56
2018-03-06T04:47:17.622Z,1.56
2018-03-06T04:48:18.301Z,1.55
2018-03-06T04:49:17.631Z,1.55
2018-03-06T04:50:18.540Z,1.59
2018-03-06T04:51:19.426Z,1.6
2018-03-06T04:52:17.298Z,1.62
2018-03-06T04:53:17.288Z,1.63
2018-03-06T04:54:17.282Z,1.63
2018-03-06T04:55:19.198Z,1.6
2018-03-06T04:56:17.762Z,1.68
2018-03-06T04:57:16.980Z,1.7
2018-03-06T04:58:17.528Z,1.68
2018-03-06T04:59:18.837Z,1.68
2018-03-06T05:00:18.103Z,1.62
2018-03-06T05:01:18.293Z,1.68
2018-03-06T05:02:18.774Z,1.76
2018-03-06T05:03:17.475Z,1.67
2018-03-06T05:04:17.454Z,1.7
2018-03-06T05:05:18.136Z,1.76
2018-03-06T05:06:18.991Z,1.76
2018-03-06T05:07:17.425Z,1.78
2018-03-06T05:08:17.137Z,1.88
2018-03-06T05:09:17.388Z,1.85
2018-03-06T05:10:17.637Z,1.85
2018-03-06T05:11:17.398Z,1.84
2018-03-06T05:12:16.842Z,1.87
2018-03-06T05:13:17.434Z,1.87
2018-03-06T05:14:17.072Z,1.89
2018-03-06T05:15:18.424Z,1.95
2018-03-06T05:16:23.161Z,2
2018-03-06T05:17:17.310Z,1.97
2018-03-06T05:18:17.317Z,2.04
2018-03-06T05:19:18.588Z,1.94
2018-03-06T05:20:18.180Z,1.92
2018-03-06T05:21:17.019Z,1.94
2018-03-06T05:22:16.994Z,1.95
2018-03-06T05:23:18.889Z,1.89
2018-03-06T05:24:17.248Z,1.99
2018-03-06T05:25:18.063Z,1.89
2018-03-06T05:26:17.219Z,1.94
2018-03-06T05:27:17.628Z,1.91
2018-03-06T05:28:16.922Z,1.99
2018-03-06T05:29:17.223Z,1.92
2018-03-06T05:30:17.958Z,2.07
2018-03-06T05:31:18.980Z,2.04
2018-03-06T05:32:17.145Z,1.91
2018-03-06T05:33:16.879Z,1.88
2018-03-06T05:34:17.146Z,1.94
2018-03-06T05:35:19.648Z,1.95
2018-03-06T05:36:17.152Z,1.92
2018-03-06T05:37:17.125Z,1.92
2018-03-06T05:38:17.091Z,1.85
2018-03-06T05:39:16.549Z,1.91
2018-03-06T05:40:18.154Z,1.92
2018-03-06T05:41:17.081Z,1.95
2018-03-06T05:42:16.785Z,1.95
2018-03-06T05:43:18.626Z,1.84
2018-03-06T05:44:17.018Z,1.87
2018-03-06T05:45:17.646Z,1.85
2018-03-06T05:46:17.018Z,1.91
2018-03-06T05:47:21.270Z,1.8
2018-03-06T05:48:16.728Z,1.84
2018-03-06T05:49:16.976Z,1.71
2018-03-06T05:50:19.026Z,1.74
2018-03-06T05:51:16.963Z,1.74
2018-03-06T05:52:16.411Z,1.77
2018-03-06T05:53:16.930Z,1.8
2018-03-06T05:54:16.390Z,1.77
2018-03-06T05:55:17.923Z,1.71
2018-03-06T05:56:16.898Z,1.8
2018-03-06T05:57:16.639Z,1.73
2018-03-06T05:58:18.793Z,1.76
2018-03-06T05:59:16.895Z,1.81
2018-03-06T06:00:18.508Z,1.8
2018-03-06T06:01:16.332Z,1.8
2018-03-06T06:02:20.946Z,1.77
2018-03-06T06:03:16.856Z,1.77
2018-03-06T06:04:16.844Z,1.76
2018-03-06T06:05:19.073Z,1.76
2018-03-06T06:06:16.530Z,1.76
2018-03-06T06:07:16.540Z,1.74
2018-03-06T06:08:16.244Z,1.85
2018-03-06T06:09:16.523Z,1.77
2018-03-06T06:10:19.539Z,1.76
2018-03-06T06:11:16.749Z,1.84
2018-03-06T06:12:16.809Z,1.8
2018-03-06T06:13:17.204Z,1.81
2018-03-06T06:14:16.687Z,1.88
2018-03-06T06:15:18.069Z,1.84
2018-03-06T06:16:16.686Z,1.97
2018-03-06T06:17:16.667Z,1.94
2018-03-06T06:18:16.393Z,1.92
2018-03-06T06:27:25.917Z,2.1
2018-03-06T06:28:25.650Z,2.15
2018-03-06T06:29:25.970Z,2.14
2018-03-06T06:30:25.873Z,2.22
2018-03-06T06:31:25.614Z,2.17
2018-03-06T06:32:25.647Z,2.31
2018-03-06T06:33:25.839Z,2.38
2018-03-06T06:34:25.832Z,2.31
2018-03-06T06:35:25.673Z,2.33
2018-03-06T06:36:25.804Z,2.38
2018-03-06T06:37:27.487Z,2.44
2018-03-06T06:38:25.537Z,2.6
2018-03-06T06:39:25.768Z,2.56
2018-03-06T06:40:25.537Z,2.57
2018-03-06T06:41:25.505Z,2.56
2018-03-06T06:42:25.557Z,2.61
2018-03-06T06:43:25.728Z,2.67
2018-03-06T06:44:25.724Z,2.68
2018-03-06T06:45:25.713Z,2.74
2018-03-06T06:46:25.466Z,2.74
2018-03-06T06:47:25.445Z,2.82
2018-03-06T06:48:25.680Z,2.89
2018-03-06T06:49:25.689Z,2.92
2018-03-06T06:50:25.429Z,2.97
2018-03-06T06:51:25.659Z,3.11
2018-03-06T06:52:26.561Z,3.13
2018-03-06T06:53:25.382Z,3.23
2018-03-06T06:54:25.376Z,3.23
2018-03-06T06:55:25.603Z,3.26
2018-03-06T06:56:25.613Z,3.37
2018-03-06T06:57:25.591Z,3.47
2018-03-06T06:58:25.596Z,3.47
2018-03-06T06:59:25.599Z,3.48
2018-03-06T07:00:25.317Z,3.56
2018-03-06T07:01:25.308Z,3.65
2018-03-06T07:02:25.306Z,3.66
2018-03-06T07:03:25.550Z,3.74
2018-03-06T07:04:25.646Z,3.76
2018-03-06T07:05:25.563Z,3.87
2018-03-06T07:06:25.523Z,3.86
2018-03-06T07:07:26.305Z,3.94
2018-03-06T07:08:25.507Z,3.87
2018-03-06T07:09:25.509Z,3.86
2018-03-06T07:10:25.630Z,3.81
2018-03-06T07:11:24.948Z,3.98
2018-03-06T07:12:25.197Z,3.98
2018-03-06T07:13:25.476Z,4.04
2018-03-06T07:14:25.177Z,4.04
2018-03-06T07:15:25.448Z,3.99
2018-03-06T07:16:25.161Z,4.14
2018-03-06T07:17:25.154Z,4.13
2018-03-06T07:18:25.414Z,4.19
2018-03-06T07:19:25.405Z,4.19
2018-03-06T07:20:25.392Z,4.14
2018-03-06T07:21:25.400Z,4.24
2018-03-06T07:22:25.376Z,4.3
2018-03-06T07:23:25.394Z,4.32
2018-03-06T07:24:25.360Z,4.31
2018-03-06T07:25:25.093Z,4.32
2018-03-06T07:26:25.360Z,4.35
2018-03-06T07:27:25.346Z,4.34
2018-03-06T07:28:25.090Z,4.41
2018-03-06T07:29:25.053Z,4.42
2018-03-06T07:30:24.813Z,4.55
2018-03-06T07:31:25.310Z,4.55
2018-03-06T07:32:25.292Z,4.5
2018-03-06T07:33:24.781Z,4.5
2018-03-06T07:34:25.280Z,4.58
2018-03-06T07:35:25.004Z,4.52
2018-03-06T07:36:25.256Z,4.66
2018-03-06T07:37:25.244Z,4.73
2018-03-06T07:38:25.240Z,4.89
2018-03-06T07:39:25.301Z,4.92
2018-03-06T07:40:24.965Z,5.02
2018-03-06T07:41:25.210Z,5.11
2018-03-06T07:42:24.961Z,5.26
2018-03-06T07:43:25.742Z,5.3
2018-03-06T07:44:25.224Z,5.38
2018-03-06T07:45:25.374Z,5.53
2018-03-06T07:46:25.184Z,5.61
2018-03-06T07:47:25.188Z,5.57
2018-03-06T07:48:25.166Z,5.64
2018-03-06T07:49:24.917Z,5.64
2018-03-06T07:50:24.898Z,5.82
2018-03-06T07:51:24.886Z,5.8
2018-03-06T07:52:25.153Z,5.89
2018-03-06T07:53:27.704Z,5.87
2018-03-06T07:54:25.137Z,5.93
2018-03-06T07:55:24.863Z,6.01
2018-03-06T07:56:24.857Z,5.98
2018-03-06T07:57:24.865Z,6.08
2018-03-06T07:58:25.107Z,6.2
2018-03-06T07:59:24.846Z,6.28
2018-03-06T08:00:24.838Z,6.38
2018-03-06T08:01:24.835Z,6.35
2018-03-06T08:02:24.837Z,6.33
2018-03-06T08:03:24.902Z,6.42
2018-03-06T08:04:24.811Z,6.52
2018-03-06T08:05:25.059Z,6.51
2018-03-06T08:06:24.830Z,6.64
2018-03-06T08:07:25.101Z,6.63
2018-03-06T08:08:25.850Z,6.7
2018-03-06T08:09:25.055Z,6.75
2018-03-06T08:10:25.036Z,6.87
2018-03-06T08:11:25.020Z,6.87
2018-03-06T08:12:25.051Z,6.89
2018-03-06T08:13:24.765Z,6.89
2018-03-06T08:14:25.017Z,6.81
2018-03-06T08:15:24.755Z,6.92
2018-03-06T08:16:25.016Z,6.89
2018-03-06T08:17:24.991Z,6.88
2018-03-06T08:18:25.034Z,6.88
2018-03-06T08:19:24.982Z,6.92
2018-03-06T08:20:24.465Z,7.06
2018-03-06T08:21:24.968Z,7.06
2018-03-06T08:22:24.721Z,7.15
2018-03-06T08:23:24.963Z,7.13
2018-03-06T08:24:24.960Z,7.02
2018-03-06T08:25:24.690Z,6.89
2018-03-06T08:26:24.692Z,6.78
2018-03-06T08:27:24.946Z,6.81
2018-03-06T08:28:24.673Z,6.67
2018-03-06T08:29:24.920Z,6.64
2018-03-06T08:30:24.925Z,6.67
2018-03-06T08:31:24.402Z,6.64
2018-03-06T08:32:24.905Z,6.63
2018-03-06T08:33:24.902Z,6.69
2018-03-06T08:34:24.905Z,6.69
2018-03-06T08:35:24.890Z,6.64
2018-03-06T08:36:24.378Z,6.69
2018-03-06T08:37:24.370Z,6.67
2018-03-06T08:38:24.872Z,6.62
2018-03-06T08:39:24.618Z,6.64
2018-03-06T08:40:24.866Z,6.66
2018-03-06T08:41:24.857Z,6.75
2018-03-06T08:42:24.855Z,6.79
2018-03-06T08:43:24.858Z,6.72
2018-03-06T08:44:24.343Z,6.75
2018-03-06T08:45:24.844Z,6.69
2018-03-06T08:46:24.593Z,6.81
2018-03-06T08:47:24.824Z,6.93
2018-03-06T08:48:24.570Z,7.06
2018-03-06T08:49:24.836Z,7.1
2018-03-06T08:50:24.556Z,7.05
2018-03-06T08:51:24.305Z,7.15
2018-03-06T08:52:24.871Z,7.11
2018-03-06T08:53:24.795Z,7.06
2018-03-06T08:54:25.281Z,7.13
2018-03-06T08:55:24.532Z,7.13
2018-03-06T08:56:24.531Z,7.13
2018-03-06T08:57:24.770Z,7.17
2018-03-06T08:58:24.529Z,7.18
2018-03-06T08:59:24.510Z,7.17
2018-03-06T09:00:24.510Z,7.28
2018-03-06T09:01:24.753Z,7.25
2018-03-06T09:02:24.504Z,7.31
2018-03-06T09:03:24.503Z,7.4
2018-03-06T09:04:24.490Z,7.5
2018-03-06T09:05:24.732Z,7.53
2018-03-06T09:06:24.479Z,7.54
2018-03-06T09:07:24.719Z,7.57
2018-03-06T09:08:24.460Z,7.73
2018-03-06T09:09:28.565Z,7.72
2018-03-06T09:10:24.459Z,7.72
2018-03-06T09:11:24.192Z,7.83
2018-03-06T09:12:24.192Z,7.82
2018-03-06T09:13:24.436Z,7.83
2018-03-06T09:14:24.433Z,7.91
2018-03-06T09:15:24.697Z,7.93
2018-03-06T09:16:24.679Z,7.91
2018-03-06T09:17:24.764Z,7.93
2018-03-06T09:18:24.670Z,8.09
2018-03-06T09:19:24.411Z,8.03
2018-03-06T09:20:24.404Z,7.94
2018-03-06T09:21:24.669Z,7.91
2018-03-06T09:22:24.408Z,7.85
2018-03-06T09:23:24.395Z,7.72
2018-03-06T09:24:24.703Z,7.54
2018-03-06T09:25:24.406Z,7.69
2018-03-06T09:26:24.647Z,7.66
2018-03-06T09:27:24.380Z,7.66
2018-03-06T09:28:24.126Z,7.67
2018-03-06T09:29:24.381Z,7.7
2018-03-06T09:30:24.621Z,7.7
2018-03-06T09:31:24.614Z,7.94
2018-03-06T09:32:24.614Z,7.93
2018-03-06T09:33:24.360Z,8.01
2018-03-06T09:34:24.358Z,8.08
2018-03-06T09:35:24.595Z,8.09
2018-03-06T09:36:24.342Z,8.03
2018-03-06T09:37:24.333Z,7.97
2018-03-06T09:38:24.587Z,7.98
2018-03-06T09:39:24.336Z,8.01
2018-03-06T09:40:25.391Z,8.1
2018-03-06T09:41:24.314Z,7.97
2018-03-06T09:42:24.313Z,7.87
2018-03-06T09:43:24.308Z,7.88
2018-03-06T09:44:24.305Z,7.97
2018-03-06T09:45:24.304Z,7.93
2018-03-06T09:46:24.546Z,8.01
2018-03-06T09:47:24.289Z,8.15
2018-03-06T09:48:24.289Z,8.27
2018-03-06T09:49:24.289Z,8.53
2018-03-06T09:50:24.561Z,8.71
2018-03-06T09:51:24.526Z,8.78
2018-03-06T09:52:24.365Z,9
2018-03-06T09:53:24.269Z,8.88
2018-03-06T09:54:24.019Z,8.95
2018-03-06T09:55:28.671Z,9
2018-03-06T09:56:24.571Z,8.97
2018-03-06T09:57:24.562Z,8.97
2018-03-06T09:58:24.000Z,9.08
2018-03-06T09:59:24.249Z,9.08
2018-03-06T10:00:24.243Z,9.18
2018-03-06T10:01:24.492Z,9.23
2018-03-06T10:02:24.235Z,9.36
2018-03-06T10:03:23.976Z,9.34
2018-03-06T10:04:24.231Z,9.54
2018-03-06T10:05:24.487Z,9.44
2018-03-06T10:06:24.232Z,9.4
2018-03-06T10:07:24.470Z,9.29
2018-03-06T10:08:24.216Z,9.18
2018-03-06T10:09:24.467Z,9.26
2018-03-06T10:10:24.462Z,9.14
2018-03-06T10:11:23.960Z,9.11
2018-03-06T10:12:24.204Z,9.1
2018-03-06T10:13:24.459Z,9.18
2018-03-06T10:14:24.450Z,9.13
2018-03-06T10:15:24.206Z,9.06
2018-03-06T10:16:24.190Z,8.92
2018-03-06T10:17:24.189Z,8.71
2018-03-06T10:18:24.188Z,8.66
2018-03-06T10:19:24.191Z,8.71
2018-03-06T10:20:24.434Z,8.69
2018-03-06T10:21:24.431Z,8.55
2018-03-06T10:22:24.427Z,8.67
2018-03-06T10:23:24.420Z,8.7
2018-03-06T10:24:24.172Z,8.64
2018-03-06T10:25:24.161Z,8.71
2018-03-06T10:26:24.167Z,8.69
2018-03-06T10:27:24.408Z,8.73
2018-03-06T10:28:24.184Z,8.69
2018-03-06T10:58:35.250Z,9.47
2018-03-06T10:59:32.244Z,9.4
2018-03-06T11:00:32.496Z,9.41
2018-03-06T11:01:32.492Z,9.44
2018-03-06T11:02:32.229Z,9.43
2018-03-06T11:03:32.730Z,9.43
2018-03-06T11:04:32.772Z,9.44
2018-03-06T11:05:32.706Z,9.51
2018-03-06T11:06:32.691Z,9.48
2018-03-06T11:07:32.444Z,9.4
2018-03-06T11:08:32.423Z,9.43
2018-03-06T11:09:32.691Z,9.43
2018-03-06T11:10:32.168Z,9.46
2018-03-06T11:11:32.671Z,9.48
2018-03-06T11:12:32.671Z,9.48
2018-03-06T11:13:32.411Z,9.41
2018-03-06T11:14:32.151Z,9.43
2018-03-06T11:15:32.656Z,9.34
2018-03-06T11:16:32.653Z,9.28
2018-03-06T11:17:32.639Z,9.34
2018-03-06T11:18:32.817Z,9.28
2018-03-06T11:19:32.639Z,9.37
2018-03-06T11:20:32.382Z,9.48
2018-03-06T11:21:32.628Z,9.48
2018-03-06T11:22:32.626Z,9.39
2018-03-06T11:23:32.368Z,9.5
2018-03-06T11:24:32.363Z,9.64
2018-03-06T11:25:32.620Z,9.64
2018-03-06T11:26:32.608Z,9.59
2018-03-06T11:27:32.616Z,9.58
2018-03-06T11:28:32.820Z,9.51
2018-03-06T11:29:32.087Z,9.51
2018-03-06T11:30:32.592Z,9.58
2018-03-06T11:31:32.348Z,9.54
2018-03-06T11:32:32.329Z,9.55
2018-03-06T11:33:32.605Z,9.59
2018-03-06T11:34:32.334Z,9.74
2018-03-06T11:35:32.617Z,9.87
2018-03-06T11:36:32.578Z,9.83
2018-03-06T11:37:32.316Z,9.65
2018-03-06T11:38:32.571Z,9.65
2018-03-06T11:39:32.061Z,9.58
2018-03-06T11:40:32.311Z,9.56
2018-03-06T11:41:32.562Z,9.59
2018-03-06T11:42:32.054Z,9.72
2018-03-06T11:43:33.098Z,9.77
2018-03-06T11:44:32.551Z,9.86
2018-03-06T11:45:32.543Z,9.89
2018-03-06T11:46:32.542Z,9.89
2018-03-06T11:47:32.282Z,10.04
2018-03-06T11:48:32.028Z,10.13
2018-03-06T11:49:32.274Z,10.22
2018-03-06T11:50:32.539Z,10.16
2018-03-06T11:51:32.526Z,10.07
2018-03-06T11:52:32.525Z,9.94
2018-03-06T11:53:33.069Z,10.01
2018-03-06T11:54:32.265Z,9.92
2018-03-06T11:55:32.287Z,10.02
2018-03-06T11:56:32.525Z,10.12
2018-03-06T11:57:32.522Z,10.17
2018-03-06T11:58:32.504Z,10.25
2018-03-06T11:59:31.994Z,10.37
2018-03-06T12:00:31.996Z,10.57
2018-03-06T12:01:32.244Z,10.74
2018-03-06T12:02:32.242Z,10.87
2018-03-06T12:03:32.238Z,11
2018-03-06T12:04:32.495Z,11.23
2018-03-06T12:05:32.495Z,11.05
2018-03-06T12:06:32.233Z,10.99
2018-03-06T12:07:32.479Z,10.81
2018-03-06T12:08:31.986Z,10.86
2018-03-06T12:09:32.479Z,10.76
2018-03-06T12:10:32.476Z,10.75
2018-03-06T12:11:32.469Z,10.79
2018-03-06T12:12:32.215Z,10.71
2018-03-06T12:13:32.215Z,10.63
2018-03-06T12:14:31.967Z,10.6
2018-03-06T12:15:32.472Z,10.63
2018-03-06T12:16:32.465Z,10.51
2018-03-06T12:17:32.463Z,10.54
2018-03-06T12:18:32.227Z,10.6
2018-03-06T12:19:32.202Z,10.63
2018-03-06T12:20:32.203Z,10.61
2018-03-06T12:21:32.202Z,10.69
2018-03-06T12:22:32.461Z,10.59
2018-03-06T12:23:32.205Z,10.64
2018-03-06T12:24:32.192Z,10.64
2018-03-06T12:25:32.194Z,10.57
2018-03-06T12:26:32.195Z,10.69
2018-03-06T12:27:31.932Z,10.82
2018-03-06T12:28:32.432Z,10.72
2018-03-06T12:29:32.680Z,10.72
2018-03-06T12:30:32.173Z,10.74
2018-03-06T12:31:32.171Z,10.69
2018-03-06T12:32:32.171Z,10.72
2018-03-06T12:33:32.425Z,10.69
2018-03-06T12:34:32.180Z,10.72
2018-03-06T12:35:32.419Z,10.72
2018-03-06T12:36:32.201Z,10.68
2018-03-06T12:37:32.410Z,10.71
2018-03-06T12:38:32.436Z,10.74
2018-03-06T12:39:32.173Z,10.75
2018-03-06T12:40:31.916Z,10.72
2018-03-06T12:41:32.149Z,10.72
2018-03-06T12:42:32.460Z,10.71
2018-03-06T12:43:32.410Z,10.72
2018-03-06T12:44:32.150Z,10.74
2018-03-06T12:45:32.164Z,10.82
2018-03-06T12:46:32.395Z,10.93
2018-03-06T12:47:32.143Z,11.04
2018-03-06T12:48:32.397Z,11
2018-03-06T12:49:31.877Z,11.04
2018-03-06T12:50:32.140Z,11.08
2018-03-06T12:51:32.125Z,11.07
2018-03-06T12:52:32.388Z,11.1
2018-03-06T12:53:32.122Z,11
2018-03-06T12:54:32.376Z,10.92
2018-03-06T12:55:32.422Z,10.99
2018-03-06T12:56:32.409Z,10.87
2018-03-06T12:57:32.127Z,10.89
2018-03-06T12:58:32.371Z,10.97
2018-03-06T12:59:31.858Z,10.96
2018-03-06T13:00:32.360Z,10.99
2018-03-06T13:01:32.103Z,10.99
2018-03-06T13:02:32.359Z,11.02
2018-03-06T13:03:32.101Z,10.96
2018-03-06T13:04:32.356Z,10.92
2018-03-06T13:05:31.839Z,10.89
2018-03-06T13:06:32.350Z,10.96
2018-03-06T13:07:31.845Z,11
2018-03-06T13:08:32.086Z,11.17
2018-03-06T13:09:32.085Z,11.19
2018-03-06T13:10:32.090Z,11.19
2018-03-06T13:11:32.352Z,11.26
2018-03-06T13:12:32.096Z,11.22
2018-03-06T13:13:32.326Z,11.18
2018-03-06T13:14:32.074Z,11.11
2018-03-06T13:15:31.823Z,11.27
2018-03-06T13:16:32.323Z,11.17
2018-03-06T13:17:31.819Z,11.25
2018-03-06T13:18:32.357Z,11.26
2018-03-06T13:19:32.321Z,11.29
2018-03-06T13:20:32.325Z,11.3
2018-03-06T13:21:32.059Z,11.43
2018-03-06T13:22:32.054Z,11.37
2018-03-06T13:23:32.420Z,11.41
2018-03-06T13:24:31.858Z,11.36
2018-03-06T13:25:32.046Z,11.19
2018-03-06T13:26:32.322Z,11.18
2018-03-06T13:27:32.303Z,11.23
2018-03-06T13:28:32.303Z,11.07
2018-03-06T13:29:32.312Z,11
2018-03-06T13:30:34.098Z,11.08
2018-03-06T13:31:32.316Z,10.92
2018-03-06T13:32:32.085Z,10.92
2018-03-06T13:33:32.288Z,10.94
2018-03-06T13:34:32.027Z,10.9
2018-03-06T13:35:32.280Z,10.92
2018-03-06T13:36:32.292Z,10.99
2018-03-06T13:37:32.014Z,11.08
2018-03-06T13:38:32.317Z,11.11
2018-03-06T13:39:32.276Z,11.15
2018-03-06T13:40:32.009Z,11.12
2018-03-06T13:41:32.269Z,11.1
2018-03-06T13:42:32.009Z,11.19
2018-03-06T13:43:31.755Z,11.23
2018-03-06T13:44:31.749Z,11.36
2018-03-06T13:45:32.006Z,11.33
2018-03-06T13:46:32.266Z,11.48
2018-03-06T13:47:32.259Z,11.47
2018-03-06T13:48:32.010Z,11.43
2018-03-06T13:49:31.989Z,11.48
2018-03-06T13:50:31.994Z,11.4
2018-03-06T13:51:32.265Z,11.35
2018-03-06T13:52:31.992Z,11.35
2018-03-06T13:53:31.732Z,11.3
2018-03-06T13:54:31.732Z,11.25